Time;durP1;ratioP1;P1;durP2;ratioP2;P2;SDS_P1;SDS_P2;PMS_P1;PMS_P2;Temp;Humidity;BMP_temperature;BMP_pressure;BME280_temperature;BME280_humidity;BME280_pressure;Samples;Min_cycle;Max_cycle;Signal;HPM_P1;HPM_P2
2023/12/02 06:01:04;;;;;;;48.37;18.57;;;;;;;;;;5629802;23;21066;-71
2023/12/02 06:03:30;;;;;;;27.50;14.77;;;;;;;;;;4935974;29;20470;-71
2023/12/02 06:05:56;;;;;;;46.63;15.93;;;;;;;;;;4935809;29;20409;-71
2023/12/02 06:08:22;;;;;;;41.27;18.00;;;;;;;;;;4935715;29;20410;-70
2023/12/02 06:10:48;;;;;;;46.23;19.20;;;;;;;;;;4935923;29;20473;-70
2023/12/02 06:13:14;;;;;;;40.17;15.00;;;;;;;;;;4935943;29;20998;-70
2023/12/02 06:15:40;;;;;;;54.57;19.50;;;;;;;;;;4938329;29;20480;-70
2023/12/02 06:18:06;;;;;;;53.27;20.20;;;;;;;;;;4939379;29;20413;-69
2023/12/02 06:20:32;;;;;;;47.63;18.03;;;;;;;;;;4938175;29;20438;-69
2023/12/02 06:22:58;;;;;;;47.70;18.13;;;;;;;;;;4936182;29;20417;-69
2023/12/02 06:25:24;;;;;;;52.20;18.67;;;;;;;;;;4935647;29;20431;-69
2023/12/02 06:27:50;;;;;;;39.53;15.53;;;;;;;;;;4935084;29;20432;-69
2023/12/02 06:30:18;;;;;;;53.33;18.83;;;;;;;;;;4935478;29;20477;-69
2023/12/02 06:32:44;;;;;;;39.90;18.23;;;;;;;;;;4935498;29;20425;-70
2023/12/02 06:35:10;;;;;;;46.37;19.07;;;;;;;;;;4935485;29;20465;-70
2023/12/02 06:37:36;;;;;;;44.73;18.97;;;;;;;;;;4935090;29;20413;-68
2023/12/02 06:40:03;;;;;;;53.57;21.03;;;;;;;;;;4935409;29;20414;-70
2023/12/02 06:42:29;;;;;;;53.67;20.03;;;;;;;;;;4935401;29;20492;-68
2023/12/02 06:44:55;;;;;;;44.20;18.33;;;;;;;;;;4935179;29;20777;-69
2023/12/02 06:47:21;;;;;;;47.73;18.27;;;;;;;;;;4934954;29;20416;-69
2023/12/02 06:49:47;;;;;;;55.10;20.30;;;;;;;;;;4935308;29;20425;-69
2023/12/02 06:52:13;;;;;;;37.23;16.00;;;;;;;;;;4935185;29;20475;-69
2023/12/02 06:54:39;;;;;;;41.57;15.50;;;;;;;;;;4940322;29;20420;-68
2023/12/02 06:57:05;;;;;;;44.40;17.50;;;;;;;;;;4935256;29;20420;-68
2023/12/02 06:59:31;;;;;;;52.97;22.67;;;;;;;;;;4934967;29;20414;-69
2023/12/02 07:01:57;;;;;;;49.63;20.70;;;;;;;;;;4934965;29;20457;-69
2023/12/02 07:04:23;;;;;;;54.30;21.53;;;;;;;;;;4935284;29;20429;-69
2023/12/02 07:06:49;;;;;;;49.70;19.07;;;;;;;;;;4935038;29;20427;-69
2023/12/02 07:09:15;;;;;;;48.90;19.00;;;;;;;;;;4935122;29;20424;-68
2023/12/02 07:11:41;;;;;;;49.47;18.70;;;;;;;;;;4934818;29;20475;-70
2023/12/02 07:14:07;;;;;;;56.80;20.73;;;;;;;;;;4934976;29;20418;-70
2023/12/02 07:16:33;;;;;;;44.83;16.67;;;;;;;;;;4934414;29;20406;-69
2023/12/02 07:18:59;;;;;;;39.80;16.83;;;;;;;;;;4934704;29;20996;-69
2023/12/02 07:21:25;;;;;;;43.13;18.17;;;;;;;;;;4933316;29;20535;-69
2023/12/02 07:23:51;;;;;;;41.87;17.13;;;;;;;;;;4934754;29;20414;-69
2023/12/02 07:26:17;;;;;;;38.50;14.60;;;;;;;;;;4934518;29;20421;-69
2023/12/02 07:28:43;;;;;;;46.03;16.40;;;;;;;;;;4934335;29;20417;-69
2023/12/02 07:31:13;;;;;;;44.97;18.70;;;;;;;;;;4934456;29;20620;-70
2023/12/02 07:33:39;;;;;;;44.30;16.97;;;;;;;;;;4934582;29;20424;-69
2023/12/02 07:36:05;;;;;;;41.20;17.33;;;;;;;;;;4934503;29;20413;-70
2023/12/02 07:38:31;;;;;;;41.73;15.80;;;;;;;;;;4934112;29;20420;-69
2023/12/02 07:40:57;;;;;;;39.37;15.90;;;;;;;;;;4934316;29;20952;-69
2023/12/02 07:43:23;;;;;;;46.17;17.17;;;;;;;;;;4934472;29;20508;-69
2023/12/02 07:45:50;;;;;;;43.47;16.40;;;;;;;;;;4934306;29;20417;-70
2023/12/02 07:48:16;;;;;;;45.10;17.53;;;;;;;;;;4934250;29;20429;-69
2023/12/02 07:50:42;;;;;;;38.00;14.27;;;;;;;;;;4934411;29;20461;-68
2023/12/02 07:53:08;;;;;;;39.03;14.00;;;;;;;;;;4934315;29;20412;-68
2023/12/02 07:55:34;;;;;;;46.90;17.40;;;;;;;;;;4934324;29;20421;-69
2023/12/02 07:58:01;;;;;;;36.87;14.90;;;;;;;;;;4934075;29;20847;-69
2023/12/02 08:00:27;;;;;;;41.73;14.83;;;;;;;;;;4934090;29;20425;-70
2023/12/02 08:02:53;;;;;;;40.87;15.83;;;;;;;;;;4934450;29;20513;-69
2023/12/02 08:05:19;;;;;;;41.37;16.70;;;;;;;;;;4934296;29;20425;-70
2023/12/02 08:07:46;;;;;;;35.90;15.43;;;;;;;;;;4934238;29;20920;-69
2023/12/02 08:10:12;;;;;;;53.17;15.57;;;;;;;;;;4933983;29;20502;-69
2023/12/02 08:12:39;;;;;;;30.27;13.20;;;;;;;;;;4934307;29;20414;-68
2023/12/02 08:15:08;;;;;;;33.33;15.43;;;;;;;;;;4934375;29;20406;-69
2023/12/02 08:17:34;;;;;;;39.97;16.37;;;;;;;;;;4934308;29;20428;-69
2023/12/02 08:20:00;;;;;;;35.73;15.20;;;;;;;;;;4934492;29;20413;-70
2023/12/02 08:22:26;;;;;;;37.93;17.23;;;;;;;;;;4934337;29;20437;-69
2023/12/02 08:24:52;;;;;;;44.40;19.00;;;;;;;;;;4934167;29;20440;-70
2023/12/02 08:27:18;;;;;;;46.33;19.90;;;;;;;;;;4934042;29;20413;-70
2023/12/02 08:29:44;;;;;;;38.03;15.73;;;;;;;;;;4934314;29;20497;-70
2023/12/02 08:32:10;;;;;;;47.20;17.60;;;;;;;;;;4937611;29;20547;-70
2023/12/02 08:34:36;;;;;;;48.53;16.43;;;;;;;;;;4937692;29;20772;-69
2023/12/02 08:37:02;;;;;;;48.17;19.80;;;;;;;;;;4939340;29;20438;-69
2023/12/02 08:39:28;;;;;;;43.07;18.57;;;;;;;;;;4936991;29;20462;-69
2023/12/02 08:41:54;;;;;;;37.17;17.07;;;;;;;;;;4936228;29;20461;-70
2023/12/02 08:44:22;;;;;;;45.87;16.73;;;;;;;;;;4937614;29;20420;-69
2023/12/02 08:46:48;;;;;;;39.03;16.83;;;;;;;;;;4937533;29;20476;-69
2023/12/02 08:49:14;;;;;;;43.50;17.97;;;;;;;;;;4937128;29;20429;-71
2023/12/02 08:51:40;;;;;;;43.70;18.10;;;;;;;;;;4937280;29;20803;-70
2023/12/02 08:54:06;;;;;;;44.63;18.73;;;;;;;;;;4937369;29;20425;-70
2023/12/02 08:56:33;;;;;;;42.53;18.50;;;;;;;;;;4937230;29;20413;-71
2023/12/02 08:58:59;;;;;;;40.60;17.70;;;;;;;;;;4936937;29;20536;-70
2023/12/02 09:01:25;;;;;;;52.90;18.10;;;;;;;;;;4936939;29;20445;-70
2023/12/02 09:03:51;;;;;;;44.87;17.23;;;;;;;;;;4936455;29;20519;-70
2023/12/02 09:06:17;;;;;;;44.57;18.90;;;;;;;;;;4938560;29;20457;-70
2023/12/02 09:08:43;;;;;;;50.20;18.80;;;;;;;;;;4937221;29;20451;-70
2023/12/02 09:11:09;;;;;;;53.97;22.03;;;;;;;;;;4937580;29;20523;-70
2023/12/02 09:13:42;;;;;;;45.47;19.23;;;;;;;;;;4936215;29;20437;-70
2023/12/02 09:16:10;;;;;;;42.13;17.10;;;;;;;;;;4937859;29;20413;-69
2023/12/02 09:18:37;;;;;;;47.60;19.33;;;;;;;;;;4937170;29;20475;-70
2023/12/02 09:21:03;;;;;;;40.53;16.97;;;;;;;;;;4936729;29;20537;-71
2023/12/02 09:23:30;;;;;;;52.77;18.80;;;;;;;;;;4937028;29;20453;-70
2023/12/02 09:26:00;;;;;;;46.17;17.90;;;;;;;;;;4936953;29;20425;-71
2023/12/02 09:28:27;;;;;;;51.40;17.97;;;;;;;;;;4936663;29;20532;-71
2023/12/02 09:30:56;;;;;;;41.60;16.80;;;;;;;;;;4936510;29;20482;-70
2023/12/02 09:33:22;;;;;;;44.43;16.60;;;;;;;;;;4936534;29;21061;-71
2023/12/02 09:35:51;;;;;;;40.10;16.80;;;;;;;;;;4936722;29;20420;-71
2023/12/02 09:38:17;;;;;;;41.47;17.87;;;;;;;;;;4936384;29;20418;-71
2023/12/02 09:41:02;;;;;;;45.47;19.13;;;;;;;;;;4936564;29;20444;-71
2023/12/02 09:43:47;;;;;;;48.27;19.37;;;;;;;;;;4935372;29;20413;-71
2023/12/02 09:46:21;;;;;;;42.23;17.60;;;;;;;;;;4936597;29;20416;-71
2023/12/02 09:49:06;;;;;;;47.60;18.47;;;;;;;;;;4936547;29;20427;-71
2023/12/02 09:51:47;;;;;;;44.67;18.27;;;;;;;;;;4936533;29;20471;-71
2023/12/02 09:54:28;;;;;;;38.23;15.80;;;;;;;;;;4936412;29;20412;-71
2023/12/02 09:57:02;;;;;;;31.93;14.90;;;;;;;;;;4936341;29;20514;-71
2023/12/02 09:59:31;;;;;;;36.67;16.20;;;;;;;;;;4936503;29;20414;-71
2023/12/02 10:02:17;;;;;;;40.83;16.37;;;;;;;;;;4936471;29;20484;-71
2023/12/02 10:04:48;;;;;;;34.87;15.03;;;;;;;;;;4936270;29;20421;-71
2023/12/02 10:07:17;;;;;;;37.47;16.03;;;;;;;;;;4935995;29;20780;-71
2023/12/02 10:09:47;;;;;;;42.00;16.80;;;;;;;;;;4936025;29;20424;-71
2023/12/02 10:12:22;;;;;;;35.13;14.63;;;;;;;;;;4935977;29;20465;-71
2023/12/02 10:14:51;;;;;;;31.47;14.10;;;;;;;;;;4936019;29;20807;-71
2023/12/02 10:17:18;;;;;;;30.40;14.13;;;;;;;;;;4937952;29;20445;-71
2023/12/02 10:19:51;;;;;;;28.53;12.53;;;;;;;;;;4938848;29;20406;-71
2023/12/02 10:22:18;;;;;;;46.23;17.40;;;;;;;;;;4936065;29;20540;-71
2023/12/02 10:25:04;;;;;;;36.33;13.40;;;;;;;;;;4935760;29;20912;-71
2023/12/02 10:27:35;;;;;;;37.53;14.53;;;;;;;;;;4935432;29;20449;-71
2023/12/02 10:30:10;;;;;;;29.10;13.23;;;;;;;;;;4935729;29;20862;-70
2023/12/02 10:32:36;;;;;;;30.13;12.60;;;;;;;;;;4935450;29;20523;-70
2023/12/02 10:35:31;;;;;;;34.63;13.70;;;;;;;;;;4935586;29;20488;-69
2023/12/02 10:38:16;;;;;;;40.97;16.00;;;;;;;;;;4922243;29;20433;-70
2023/12/02 10:40:46;;;;;;;33.30;15.07;;;;;;;;;;4935519;29;20429;-70
2023/12/02 10:43:20;;;;;;;33.10;14.13;;;;;;;;;;4935788;29;20485;-70
2023/12/02 10:45:48;;;;;;;40.20;14.30;;;;;;;;;;4935348;29;20413;-70
2023/12/02 10:48:17;;;;;;;34.93;13.27;;;;;;;;;;4935405;29;20413;-68
2023/12/02 10:50:43;;;;;;;27.33;12.50;;;;;;;;;;4936081;29;20476;-70
2023/12/02 10:53:10;;;;;;;27.30;13.00;;;;;;;;;;4934921;29;20463;-69
2023/12/02 10:55:37;;;;;;;34.60;14.07;;;;;;;;;;4937454;29;20411;-72
2023/12/02 10:58:05;;;;;;;34.43;13.77;;;;;;;;;;4936064;29;20410;-72
2023/12/02 11:00:35;;;;;;;28.90;12.90;;;;;;;;;;4935151;29;20801;-72
2023/12/02 11:03:06;;;;;;;37.03;15.23;;;;;;;;;;4935095;29;20421;-69
2023/12/02 11:05:56;;;;;;;34.03;14.47;;;;;;;;;;4935125;29;20442;-70
2023/12/02 11:08:23;;;;;;;46.20;16.23;;;;;;;;;;4934692;29;20420;-70
2023/12/02 11:10:52;;;;;;;27.60;13.20;;;;;;;;;;4934757;29;20804;-70
2023/12/02 11:13:23;;;;;;;30.90;12.47;;;;;;;;;;4934731;29;20424;-71
2023/12/02 11:16:09;;;;;;;31.20;12.27;;;;;;;;;;4934766;29;20885;-70
2023/12/02 11:18:45;;;;;;;34.27;12.33;;;;;;;;;;4924455;29;20801;-70
2023/12/02 11:21:20;;;;;;;32.20;14.23;;;;;;;;;;4934579;29;20436;-70
2023/12/02 11:24:04;;;;;;;20.33;10.87;;;;;;;;;;4934810;29;20464;-71
2023/12/02 11:26:33;;;;;;;26.37;12.10;;;;;;;;;;4934657;29;20414;-70
2023/12/02 11:29:15;;;;;;;20.33;10.30;;;;;;;;;;4935074;29;20563;-70
2023/12/02 11:31:47;;;;;;;22.40;11.00;;;;;;;;;;4934719;29;20473;-70
2023/12/02 11:34:23;;;;;;;27.40;11.17;;;;;;;;;;4934625;29;20847;-70
2023/12/02 11:36:55;;;;;;;17.77;9.03;;;;;;;;;;4934446;29;20773;-70
2023/12/02 11:39:39;;;;;;;27.10;11.13;;;;;;;;;;4934352;29;20415;-70
2023/12/02 11:42:21;;;;;;;23.37;10.93;;;;;;;;;;4934258;29;20432;-69
2023/12/02 11:44:47;;;;;;;22.50;11.13;;;;;;;;;;4934593;29;20469;-70
2023/12/02 11:47:25;;;;;;;30.97;12.40;;;;;;;;;;4933124;29;20432;-70
2023/12/02 11:50:06;;;;;;;26.53;12.50;;;;;;;;;;4934412;29;20441;-70
2023/12/02 11:53:01;;;;;;;23.10;11.30;;;;;;;;;;4934445;29;20796;-70
2023/12/02 11:55:32;;;;;;;22.37;11.37;;;;;;;;;;4934341;29;20911;-70
2023/12/02 11:57:58;;;;;;;29.83;13.47;;;;;;;;;;4933853;29;20401;-70
2023/12/02 12:00:43;;;;;;;28.70;12.57;;;;;;;;;;4933995;29;20497;-70
2023/12/02 12:03:21;;;;;;;25.40;11.57;;;;;;;;;;4935013;29;20458;-70
2023/12/02 12:06:06;;;;;;;26.40;12.87;;;;;;;;;;4937860;29;20436;-70
2023/12/02 12:08:50;;;;;;;20.80;9.30;;;;;;;;;;4937695;29;20410;-70
2023/12/02 12:11:17;;;;;;;21.40;10.00;;;;;;;;;;4937827;29;20533;-70
2023/12/02 12:16:11;;;;;;;23.10;10.70;;;;;;;;;;4917720;29;20822;-70
2023/12/02 12:18:37;;;;;;;20.33;10.83;;;;;;;;;;4919019;29;20944;-68
2023/12/02 12:21:03;;;;;;;21.30;10.40;;;;;;;;;;4919116;29;20505;-70
2023/12/02 12:23:31;;;;;;;30.40;11.50;;;;;;;;;;4919187;29;20411;-69
2023/12/02 12:25:58;;;;;;;19.87;9.60;;;;;;;;;;4901381;29;20427;-68
2023/12/02 12:28:25;;;;;;;20.80;10.53;;;;;;;;;;4900002;29;20832;-68
2023/12/02 12:30:51;;;;;;;22.07;10.30;;;;;;;;;;4900314;29;20571;-68
2023/12/02 12:33:19;;;;;;;17.10;9.30;;;;;;;;;;4899936;29;20419;-68
2023/12/02 12:35:45;;;;;;;17.47;8.93;;;;;;;;;;4899826;29;20431;-69
2023/12/02 12:38:11;;;;;;;18.13;9.10;;;;;;;;;;4900071;29;20417;-69
2023/12/02 12:40:38;;;;;;;22.77;10.87;;;;;;;;;;4900303;29;20919;-69
2023/12/02 12:43:04;;;;;;;20.20;9.23;;;;;;;;;;4898902;29;20542;-70
2023/12/02 12:45:33;;;;;;;23.57;9.50;;;;;;;;;;4899749;29;20963;-69
2023/12/02 12:48:00;;;;;;;19.60;8.50;;;;;;;;;;4899518;29;20938;-70
2023/12/02 12:50:29;;;;;;;19.50;7.90;;;;;;;;;;4899812;29;20472;-69
2023/12/02 12:52:58;;;;;;;17.33;8.27;;;;;;;;;;4899723;29;20506;-69
2023/12/02 12:55:25;;;;;;;17.83;9.30;;;;;;;;;;4900026;29;20463;-69
2023/12/02 12:57:50;;;;;;;19.03;9.03;;;;;;;;;;4899838;29;20497;-69
2023/12/02 13:00:17;;;;;;;18.57;9.10;;;;;;;;;;4899448;29;20879;-70
2023/12/02 13:02:59;;;;;;;20.03;9.40;;;;;;;;;;4899439;29;20776;-69
2023/12/02 13:05:30;;;;;;;19.37;10.23;;;;;;;;;;4899055;29;20440;-70
2023/12/02 13:08:04;;;;;;;28.70;11.63;;;;;;;;;;4899463;29;20444;-70
2023/12/02 13:10:32;;;;;;;19.80;11.63;;;;;;;;;;4899334;29;20459;-70
2023/12/02 13:13:01;;;;;;;25.27;12.07;;;;;;;;;;4898980;29;20415;-70
2023/12/02 13:15:28;;;;;;;27.37;11.37;;;;;;;;;;4898273;29;20455;-70
2023/12/02 13:17:55;;;;;;;25.13;11.43;;;;;;;;;;4897663;29;20790;-69
2023/12/02 13:20:22;;;;;;;22.20;11.17;;;;;;;;;;4900296;29;20414;-70
2023/12/02 13:22:49;;;;;;;24.67;11.23;;;;;;;;;;4899446;29;20913;-70
2023/12/02 13:25:19;;;;;;;18.93;10.97;;;;;;;;;;4898897;29;20486;-70
2023/12/02 13:27:45;;;;;;;20.80;10.70;;;;;;;;;;4899013;29;20416;-70
2023/12/02 13:30:11;;;;;;;19.90;9.63;;;;;;;;;;4898907;29;20922;-70
2023/12/02 13:32:41;;;;;;;20.53;11.37;;;;;;;;;;4898914;29;20482;-70
2023/12/02 13:35:11;;;;;;;22.13;10.40;;;;;;;;;;4899047;29;20787;-70
2023/12/02 13:38:00;;;;;;;24.43;11.83;;;;;;;;;;4898621;29;20467;-71
2023/12/02 13:40:38;;;;;;;20.20;10.80;;;;;;;;;;4895976;29;20984;-70
2023/12/02 13:43:06;;;;;;;23.47;12.17;;;;;;;;;;4898770;29;20418;-70
2023/12/02 13:45:33;;;;;;;24.43;11.00;;;;;;;;;;4898516;29;20947;-70
2023/12/02 13:48:04;;;;;;;21.70;11.30;;;;;;;;;;4898495;29;20412;-70
2023/12/02 13:50:39;;;;;;;21.03;11.27;;;;;;;;;;4898592;29;20491;-70
2023/12/02 13:53:18;;;;;;;23.27;11.40;;;;;;;;;;4898550;29;20418;-71
2023/12/02 13:55:57;;;;;;;20.03;9.90;;;;;;;;;;4898369;29;20526;-70
2023/12/02 13:58:28;;;;;;;19.43;10.13;;;;;;;;;;4898378;29;20494;-70
2023/12/02 14:01:02;;;;;;;20.50;10.17;;;;;;;;;;4897245;29;20468;-69
2023/12/02 14:03:47;;;;;;;24.20;9.73;;;;;;;;;;4898187;29;20424;-70
2023/12/02 14:06:15;;;;;;;14.10;8.77;;;;;;;;;;4897900;29;20507;-70
2023/12/02 14:08:42;;;;;;;22.63;10.97;;;;;;;;;;4897907;29;20430;-70
2023/12/02 14:11:12;;;;;;;19.90;9.97;;;;;;;;;;4898354;29;20863;-70
2023/12/02 14:13:45;;;;;;;21.07;9.60;;;;;;;;;;4898279;29;20450;-70
2023/12/02 14:16:14;;;;;;;19.47;9.23;;;;;;;;;;4898123;29;20441;-70
2023/12/02 14:18:43;;;;;;;18.97;10.43;;;;;;;;;;4897890;29;20407;-70
2023/12/02 14:21:22;;;;;;;19.73;9.20;;;;;;;;;;4898083;29;20408;-70
2023/12/02 14:24:07;;;;;;;21.10;10.53;;;;;;;;;;4897567;29;20446;-70
2023/12/02 14:26:54;;;;;;;20.40;11.33;;;;;;;;;;4897157;29;20404;-70
2023/12/02 14:29:23;;;;;;;18.33;9.13;;;;;;;;;;4897514;29;20477;-70
2023/12/02 14:31:55;;;;;;;24.20;9.73;;;;;;;;;;4897691;29;20470;-70
2023/12/02 14:34:40;;;;;;;26.80;10.60;;;;;;;;;;4897852;29;20491;-70
2023/12/02 14:37:09;;;;;;;20.23;10.37;;;;;;;;;;4897710;29;20403;-70
2023/12/02 14:39:54;;;;;;;26.30;10.73;;;;;;;;;;4897588;29;20890;-70
2023/12/02 14:42:42;;;;;;;21.77;10.83;;;;;;;;;;4897628;29;20502;-71
2023/12/02 14:45:08;;;;;;;26.90;12.60;;;;;;;;;;4897562;29;20440;-70
2023/12/02 14:47:42;;;;;;;25.00;11.03;;;;;;;;;;4897249;29;20904;-70
2023/12/02 14:50:08;;;;;;;22.50;11.13;;;;;;;;;;4897484;29;20411;-71
2023/12/02 14:52:34;;;;;;;25.20;12.73;;;;;;;;;;4898285;29;20490;-70
2023/12/02 14:55:01;;;;;;;24.67;11.60;;;;;;;;;;4897608;29;20919;-69
2023/12/02 14:57:29;;;;;;;32.00;14.27;;;;;;;;;;4897200;29;20903;-69
2023/12/02 14:59:58;;;;;;;29.30;14.10;;;;;;;;;;4897569;29;20953;-69
2023/12/02 15:02:37;;;;;;;26.50;12.47;;;;;;;;;;4896636;29;20499;-69
2023/12/02 15:05:04;;;;;;;26.17;11.30;;;;;;;;;;4897575;29;20450;-69
2023/12/02 15:07:31;;;;;;;29.37;13.40;;;;;;;;;;4897096;29;20411;-69
2023/12/02 15:09:59;;;;;;;26.50;11.77;;;;;;;;;;4897289;29;20422;-70
2023/12/02 15:12:25;;;;;;;27.20;12.20;;;;;;;;;;4897304;29;20493;-70
2023/12/02 15:14:50;;;;;;;24.30;12.63;;;;;;;;;;4897035;29;20454;-71
2023/12/02 15:17:16;;;;;;;17.83;10.23;;;;;;;;;;4897447;29;20416;-70
2023/12/02 15:19:44;;;;;;;27.33;11.30;;;;;;;;;;4897442;29;20462;-70
2023/12/02 15:22:14;;;;;;;21.03;11.30;;;;;;;;;;4897197;29;20427;-70
2023/12/02 15:24:40;;;;;;;21.60;10.93;;;;;;;;;;4897011;29;20439;-70
2023/12/02 15:27:06;;;;;;;20.33;10.50;;;;;;;;;;4896980;29;20412;-70
2023/12/02 15:29:33;;;;;;;18.30;10.20;;;;;;;;;;4896668;29;20411;-71
2023/12/02 15:31:59;;;;;;;21.93;10.27;;;;;;;;;;4897094;29;20474;-71
2023/12/02 15:34:25;;;;;;;20.27;11.00;;;;;;;;;;4897052;29;20431;-71
2023/12/02 15:36:51;;;;;;;25.17;12.07;;;;;;;;;;4897986;29;20415;-70
2023/12/02 15:39:17;;;;;;;24.07;11.30;;;;;;;;;;4901520;29;20812;-70
2023/12/02 15:41:43;;;;;;;19.17;10.13;;;;;;;;;;4899323;29;20423;-70
2023/12/02 15:44:11;;;;;;;21.23;11.00;;;;;;;;;;4900879;29;20957;-70
2023/12/02 15:46:37;;;;;;;22.87;11.30;;;;;;;;;;4898680;29;20426;-70
2023/12/02 15:49:03;;;;;;;25.60;10.43;;;;;;;;;;4896995;29;20843;-70
2023/12/02 15:51:31;;;;;;;22.40;10.97;;;;;;;;;;4896828;29;20843;-69
2023/12/02 15:53:58;;;;;;;21.93;10.80;;;;;;;;;;4896491;29;20412;-70
2023/12/02 15:56:25;;;;;;;20.70;10.40;;;;;;;;;;4896652;29;20505;-70
2023/12/02 15:58:53;;;;;;;20.33;9.97;;;;;;;;;;4896687;29;20418;-70
2023/12/02 16:01:19;;;;;;;16.07;9.40;;;;;;;;;;4896656;29;20432;-70
2023/12/02 16:03:46;;;;;;;17.73;9.20;;;;;;;;;;4896535;29;20419;-73
2023/12/02 16:06:15;;;;;;;20.60;9.87;;;;;;;;;;4896675;29;20426;-70
2023/12/02 16:08:41;;;;;;;16.43;9.53;;;;;;;;;;4896553;29;20495;-70
2023/12/02 16:11:10;;;;;;;22.03;11.17;;;;;;;;;;4896932;29;20556;-70
2023/12/02 16:13:40;;;;;;;19.33;10.40;;;;;;;;;;4896946;29;20412;-69
2023/12/02 16:16:11;;;;;;;19.40;10.13;;;;;;;;;;4896799;29;20840;-70
2023/12/02 16:18:38;;;;;;;17.23;9.67;;;;;;;;;;4896486;29;20419;-70
2023/12/02 16:21:05;;;;;;;21.23;10.43;;;;;;;;;;4896806;29;20899;-70
2023/12/02 16:23:31;;;;;;;20.30;11.27;;;;;;;;;;4896815;29;20420;-69
2023/12/02 16:25:57;;;;;;;20.37;11.50;;;;;;;;;;4896564;29;20698;-70
2023/12/02 16:28:28;;;;;;;22.43;10.20;;;;;;;;;;4895456;29;20451;-70
2023/12/02 16:30:55;;;;;;;21.43;8.77;;;;;;;;;;4896772;29;20466;-70
2023/12/02 16:33:21;;;;;;;22.20;10.07;;;;;;;;;;4896955;29;20423;-70
2023/12/02 16:35:47;;;;;;;25.50;11.77;;;;;;;;;;4896579;29;20466;-70
2023/12/02 16:38:17;;;;;;;21.33;10.37;;;;;;;;;;4896713;29;20422;-70
2023/12/02 16:40:53;;;;;;;20.03;9.97;;;;;;;;;;4898315;29;20451;-70
2023/12/02 16:43:20;;;;;;;16.60;9.10;;;;;;;;;;4899830;29;20479;-70
2023/12/02 16:45:46;;;;;;;21.20;9.97;;;;;;;;;;4899131;29;20475;-71
2023/12/02 16:48:16;;;;;;;13.53;8.23;;;;;;;;;;4899788;29;20418;-69
2023/12/02 16:50:43;;;;;;;17.83;8.70;;;;;;;;;;4901966;29;20527;-70
2023/12/02 16:53:13;;;;;;;17.87;9.73;;;;;;;;;;4904976;29;20431;-69
2023/12/02 16:55:39;;;;;;;19.23;10.67;;;;;;;;;;4903661;29;20432;-70
2023/12/02 16:58:08;;;;;;;15.67;8.03;;;;;;;;;;4904397;29;20419;-70
2023/12/02 17:00:39;;;;;;;17.47;9.30;;;;;;;;;;4902484;29;20443;-70
2023/12/02 17:03:06;;;;;;;17.90;9.63;;;;;;;;;;4900059;29;20426;-70
2023/12/02 17:05:32;;;;;;;18.80;9.03;;;;;;;;;;4898932;29;20466;-71
2023/12/02 17:08:05;;;;;;;17.23;8.77;;;;;;;;;;4898972;29;20441;-70
2023/12/02 17:10:44;;;;;;;17.07;9.10;;;;;;;;;;4899304;29;20437;-69
2023/12/02 17:13:23;;;;;;;19.67;10.00;;;;;;;;;;4899067;29;20412;-69
2023/12/02 17:15:49;;;;;;;20.30;10.33;;;;;;;;;;4897922;29;20471;-70
2023/12/02 17:18:33;;;;;;;25.73;10.37;;;;;;;;;;4898729;29;20844;-70
2023/12/02 17:21:00;;;;;;;21.07;10.70;;;;;;;;;;4898900;29;20427;-70
2023/12/02 17:23:30;;;;;;;21.23;11.10;;;;;;;;;;4898800;29;20491;-70
2023/12/02 17:25:56;;;;;;;23.67;11.90;;;;;;;;;;4899276;29;20479;-69
2023/12/02 17:28:22;;;;;;;20.10;9.80;;;;;;;;;;4898454;29;20454;-70
2023/12/02 17:30:49;;;;;;;21.30;10.20;;;;;;;;;;4898738;29;21045;-70
2023/12/02 17:33:15;;;;;;;18.40;9.87;;;;;;;;;;4898813;29;20453;-70
2023/12/02 17:35:40;;;;;;;20.07;11.03;;;;;;;;;;4898823;29;20478;-70
2023/12/02 17:38:07;;;;;;;20.80;10.07;;;;;;;;;;4898710;29;20420;-71
2023/12/02 17:40:33;;;;;;;18.93;9.80;;;;;;;;;;4898470;29;20412;-70
2023/12/02 17:42:58;;;;;;;27.53;11.17;;;;;;;;;;4898385;29;20494;-71
2023/12/02 17:45:24;;;;;;;21.37;11.43;;;;;;;;;;4898089;29;20824;-71
2023/12/02 17:47:50;;;;;;;19.70;11.10;;;;;;;;;;4898479;29;20416;-69
2023/12/02 17:50:16;;;;;;;22.37;10.90;;;;;;;;;;4898582;29;20428;-69
2023/12/02 17:52:43;;;;;;;26.93;11.47;;;;;;;;;;4898503;29;20442;-70
2023/12/02 17:55:10;;;;;;;21.93;10.60;;;;;;;;;;4898494;29;20443;-70
2023/12/02 17:57:36;;;;;;;25.40;10.73;;;;;;;;;;4898000;29;20431;-70
2023/12/02 18:00:05;;;;;;;28.37;10.83;;;;;;;;;;4898331;29;20439;-70
2023/12/02 18:02:31;;;;;;;23.73;10.47;;;;;;;;;;4898010;29;20871;-70
2023/12/02 18:04:57;;;;;;;21.53;11.20;;;;;;;;;;4898215;29;20583;-70
2023/12/02 18:07:24;;;;;;;19.70;10.53;;;;;;;;;;4898350;29;20462;-71
2023/12/02 18:09:50;;;;;;;23.37;11.40;;;;;;;;;;4897928;29;20430;-70
2023/12/02 18:12:16;;;;;;;24.40;12.13;;;;;;;;;;4897666;29;20467;-70
2023/12/02 18:14:42;;;;;;;22.07;11.30;;;;;;;;;;4898086;29;20458;-70
2023/12/02 18:17:09;;;;;;;22.13;11.50;;;;;;;;;;4897875;29;20722;-70
2023/12/02 18:19:34;;;;;;;24.87;13.10;;;;;;;;;;4897601;29;20415;-70
2023/12/02 18:22:03;;;;;;;20.90;10.40;;;;;;;;;;4897777;29;20426;-71
2023/12/02 18:24:29;;;;;;;25.27;10.00;;;;;;;;;;4897400;29;20440;-70
2023/12/02 18:26:55;;;;;;;22.07;11.20;;;;;;;;;;4897569;29;20495;-70
2023/12/02 18:29:21;;;;;;;26.80;11.90;;;;;;;;;;4897616;29;20605;-70
2023/12/02 18:31:48;;;;;;;29.57;11.70;;;;;;;;;;4897622;29;20530;-70
2023/12/02 18:34:14;;;;;;;25.53;12.13;;;;;;;;;;4897680;29;20459;-70
2023/12/02 18:36:41;;;;;;;25.93;12.87;;;;;;;;;;4897508;29;20502;-70
2023/12/02 18:39:07;;;;;;;20.70;10.67;;;;;;;;;;4897413;29;20440;-70
2023/12/02 18:41:34;;;;;;;24.50;11.37;;;;;;;;;;4897938;29;20423;-70
2023/12/02 18:44:00;;;;;;;24.60;11.80;;;;;;;;;;4897629;29;20416;-70
2023/12/02 18:46:26;;;;;;;26.73;12.67;;;;;;;;;;4897379;29;20433;-70
2023/12/02 18:48:52;;;;;;;23.03;12.17;;;;;;;;;;4897201;29;20420;-70
2023/12/02 18:51:18;;;;;;;18.43;10.47;;;;;;;;;;4897185;29;20997;-70
2023/12/02 18:53:44;;;;;;;20.43;10.93;;;;;;;;;;4897326;29;20896;-71
2023/12/02 18:56:10;;;;;;;20.83;10.67;;;;;;;;;;4897084;29;20423;-70
2023/12/02 18:58:36;;;;;;;25.13;11.53;;;;;;;;;;4896924;29;20407;-71
2023/12/02 19:01:02;;;;;;;27.50;11.77;;;;;;;;;;4897139;29;20905;-71
2023/12/02 19:03:28;;;;;;;22.77;11.17;;;;;;;;;;4896963;29;20445;-71
2023/12/02 19:05:55;;;;;;;24.50;11.97;;;;;;;;;;4896838;29;20547;-72
2023/12/02 19:08:21;;;;;;;21.17;10.33;;;;;;;;;;4896634;29;20854;-71
2023/12/02 19:10:47;;;;;;;24.43;11.10;;;;;;;;;;4896981;29;20566;-71
2023/12/02 19:13:13;;;;;;;24.40;11.63;;;;;;;;;;4896468;29;20409;-71
2023/12/02 19:15:39;;;;;;;21.53;11.40;;;;;;;;;;4896887;29;20453;-70
2023/12/02 19:18:05;;;;;;;20.30;11.67;;;;;;;;;;4896844;29;20927;-72
2023/12/02 19:20:31;;;;;;;31.17;12.80;;;;;;;;;;4896749;29;20463;-70
2023/12/02 19:22:57;;;;;;;22.10;11.37;;;;;;;;;;4896782;29;20425;-71
2023/12/02 19:25:23;;;;;;;23.93;12.07;;;;;;;;;;4896695;29;20463;-71
2023/12/02 19:27:49;;;;;;;17.83;11.30;;;;;;;;;;4896401;29;20416;-71
2023/12/02 19:30:15;;;;;;;23.77;12.13;;;;;;;;;;4896915;29;20467;-70
2023/12/02 19:32:41;;;;;;;21.10;10.90;;;;;;;;;;4896499;29;20484;-70
2023/12/02 19:35:07;;;;;;;21.43;10.93;;;;;;;;;;4896535;29;20438;-70
2023/12/02 19:37:33;;;;;;;22.27;10.83;;;;;;;;;;4896612;29;20419;-70
2023/12/02 19:39:59;;;;;;;18.93;10.83;;;;;;;;;;4897035;29;20773;-70
2023/12/02 19:42:25;;;;;;;21.03;11.30;;;;;;;;;;4896777;29;20800;-71
2023/12/02 19:44:51;;;;;;;22.07;11.00;;;;;;;;;;4896660;29;20821;-71
2023/12/02 19:47:17;;;;;;;28.30;11.73;;;;;;;;;;4896656;29;20504;-71
2023/12/02 19:49:43;;;;;;;22.47;11.97;;;;;;;;;;4896461;29;20416;-71
2023/12/02 19:52:09;;;;;;;20.50;11.30;;;;;;;;;;4896377;29;20808;-72
2023/12/02 19:54:35;;;;;;;26.20;10.97;;;;;;;;;;4896514;29;20858;-72
2023/12/02 19:57:03;;;;;;;21.00;10.87;;;;;;;;;;4896604;29;20419;-73
2023/12/02 19:59:29;;;;;;;20.13;10.60;;;;;;;;;;4896216;29;20411;-72
2023/12/02 20:01:55;;;;;;;19.13;9.50;;;;;;;;;;4896621;29;20503;-73
2023/12/02 20:04:21;;;;;;;17.40;9.43;;;;;;;;;;4896658;29;20503;-73
2023/12/02 20:06:47;;;;;;;21.07;10.30;;;;;;;;;;4896523;29;20455;-74
2023/12/02 20:09:13;;;;;;;19.27;8.87;;;;;;;;;;4896387;29;20479;-73
2023/12/02 20:11:39;;;;;;;15.50;8.77;;;;;;;;;;4896353;29;20892;-74
2023/12/02 20:14:05;;;;;;;17.20;9.03;;;;;;;;;;4896386;29;21013;-75
2023/12/02 20:16:31;;;;;;;20.57;10.10;;;;;;;;;;4900748;29;20415;-71
2023/12/02 20:18:57;;;;;;;19.57;10.93;;;;;;;;;;4902059;29;20431;-72
2023/12/02 20:21:23;;;;;;;19.93;8.80;;;;;;;;;;4901720;29;20419;-71
2023/12/02 20:23:49;;;;;;;16.63;9.93;;;;;;;;;;4901712;29;20420;-72
2023/12/02 20:26:16;;;;;;;19.47;10.00;;;;;;;;;;4901541;29;20506;-70
2023/12/02 20:28:42;;;;;;;21.23;10.30;;;;;;;;;;4901075;29;20456;-71
2023/12/02 20:31:08;;;;;;;19.37;9.70;;;;;;;;;;4900649;29;20923;-71